Andover, New York
Current Conditions -  °F | °C
As of 3:56 PM on Saturday 25 Oct 2014 (Local Time) from KELZ Reporting Station
Overcast Overcast  
Wind Chill: 60°   Ceiling: 3800
Heat Index: 60°   Visibility: 10mi
Dew Point: 45°   Wind: 14mph
Humidity: 57%   Direction: 250°WSW
Pressure: 29.69"   Gusts: 22mph
Location:  42.16°N, 77.8°W
Report Text: KELZ 251956Z AUTO 25012G19KT 10SM BKN038 OVC050 16/07 A2969 RMK AO2 PK WND 25026/1913 SLP054 T01560072
Loading
Personal Weather Stations






























Interactive Weather Map
Tropical Storm Tracking
New forecast layout! Learn more

10-Day Weather Forecast

Advertisements
Track Severe Weather on mobile